Pacific, Washington
Current Conditions -  °F | °C
As of 3:58 PM on Saturday 22 Nov 2014 (Local Time) from KTCM Reporting Station
Clear Clear  
Wind Chill: 50°   Ceiling: Unl
Heat Index: 50°   Visibility: 10mi
Dew Point: 44°   Wind: 12mph
Humidity: 79%   Direction: 210°SSW
Pressure: 29.96"   Gusts: NA
Location:  47.26°N, 122.25°W
Report Text: KTCM 222358Z AUTO 21010KT 10SM CLR 10/07 A2996 RMK AO2 SLP150 60002 T01000066 10107 20064 52028 $
Loading
Personal Weather Stations






























Interactive Weather Map New forecast layout! Learn more

10-Day Weather Forecast

Advertisements
Track Severe Weather on mobile